Impacts TAF Board
For situational awareness. Not to be used for flight planning purposes.
IDs:

KSFO - San Francisco Intl, CA, US

Issued at 0910 UTC 24 Jan 2019
Updated at 1051 UTC 24 Jan 2019
Potential Impact None Slight Moderate High
Time<<25/11Z 25/12Z 25/13Z 25/14Z 25/15Z 25/16Z 25/17Z 25/18Z 25/19Z 25/20Z 25/21Z 25/22Z 25/23Z
Type PRVL
VIS >6
CIG --
Cover SKC
FltCat VFR
WX --
WDir VRB
WSpd 3
WGst --
Raw TAF
KSFO 240910Z 2409/2512 VRB03KT P6SM FEW200
  FM241500 05004KT P6SM SKC
  FM242100 32007KT P6SM SKC
  FM250400 VRB03KT P6SM SKC


METAR Board
Radar Display
Forecast Discussion
For situational awareness. Not to be used for flight planning purposes.